LTCJ Airport Information

Runway Information
Runway 02 Length 10000 ft width 150 ft
Elevation 1796 ft Threshold 0 ft Heading 26
Runway 20 Length 10000 ft Width 150 ft
Elevation 1822 ft Threshold 0 ft Heading 206
Airport Frequencies
Type APP Name DIYARBAKIR Frequency 122.1 MHZ
Type GND Name GND Frequency 121.95 MHZ
Type TWR Name TWR Frequency 122.1 MHZ
Airport Navaids
Type TACAN Name Batman Frequency 111600 KHZ
Type VOR-DME Name Batman Frequency 116200 KHZ
Type NDB Name Batman Frequency 470 KHZ
Airport Weather Information & NOTAM
ADDS - METARS form results

(1915 UTC 18 July 2019)
Data provider http://aviationweather.gov/metar/data/
 
METAR text: LTCJ 181850Z VRB02KT CAVOK 26/13 Q1006 RMK RWY20 19004KT
Conditions at: LTCJ (BATMAN (TUR-AFB), TR) observed 1850 UTC 18 July 2019
Temperature: 26.0°C (79°F)
Dewpoint: 13.0°C (55°F) [RH = 45%]
Pressure (altimeter): 29.70 inches Hg (1006.0 mb)
Winds: variable direction winds at 2 MPH (2 knots; 1.0 m/s)
Visibility: 6 or more miles (10+ km)
Ceiling: ceiling and visibility are OK
Clouds: unknown
Weather: no significant weather observed at this time

METAR text: LTCJ 181820Z 22002KT CAVOK 25/14 Q1006 RMK RWY20 18004KT
Conditions at: LTCJ (BATMAN (TUR-AFB), TR) observed 1820 UTC 18 July 2019
Temperature: 25.0°C (77°F)
Dewpoint: 14.0°C (57°F) [RH = 50%]
Pressure (altimeter): 29.70 inches Hg (1006.0 mb)
Winds: from the SW (220 degrees) at 2 MPH (2 knots; 1.0 m/s)
Visibility: 6 or more miles (10+ km)
Ceiling: ceiling and visibility are OK
Clouds: unknown
Weather: no significant weather observed at this time

Forecast for: LTCJ (BATMAN (TUR-AFB), TR)
Text: TAF LTCJ 181640Z 1818/1918 22012KT CAVOK
Forecast period: 1800 to 2000 UTC 18 July 2019
Forecast type: FROM: standard forecast or significant change
Winds: from the SW (220 degrees) at 14 MPH (12 knots; 6.2 m/s)
Visibility: 6 or more miles 10+ km)
Ceiling: unknown
Clouds: missing
Weather: NSW  (no significant weather)
Text: BECMG 1820/1822 VRB02KT
Forecast period: 2000 UTC 18 July 2019 to 1800 UTC 19 July 2019
Forecast type: BECOMING: Conditions expected to become as follows by 2200 UTC 18 July 2019
Winds: variable direction winds at 2 MPH (2 knots; 1.0 m/s)
Visibility: 6 or more miles 10+ km)
Ceiling: unknown
Clouds: missing
Weather: NSW  (no significant weather)